sensor_id;sensor_type;location;lat;lon;timestamp;temperature;humidity
7530;DHT22;3806;52.270;10.544;2023-08-07T00:02:16;18.00;99.90
7530;DHT22;3806;52.270;10.544;2023-08-07T00:04:42;18.00;99.90
7530;DHT22;3806;52.270;10.544;2023-08-07T00:07:07;18.00;99.90
7530;DHT22;3806;52.270;10.544;2023-08-07T00:09:33;18.00;99.90
7530;DHT22;3806;52.270;10.544;2023-08-07T00:11:58;18.00;99.90
7530;DHT22;3806;52.270;10.544;2023-08-07T00:14:24;17.90;99.90
7530;DHT22;3806;52.270;10.544;2023-08-07T00:16:49;18.00;99.90
7530;DHT22;3806;52.270;10.544;2023-08-07T00:19:15;18.00;99.90
7530;DHT22;3806;52.270;10.544;2023-08-07T00:21:40;18.00;99.90
7530;DHT22;3806;52.270;10.544;2023-08-07T00:24:07;17.90;99.90
7530;DHT22;3806;52.270;10.544;2023-08-07T00:26:32;17.90;99.90
7530;DHT22;3806;52.270;10.544;2023-08-07T00:28:58;17.80;99.90
7530;DHT22;3806;52.270;10.544;2023-08-07T00:31:23;17.90;99.90
7530;DHT22;3806;52.270;10.544;2023-08-07T00:33:49;17.90;99.90
7530;DHT22;3806;52.270;10.544;2023-08-07T00:36:17;17.90;99.90
7530;DHT22;3806;52.270;10.544;2023-08-07T00:38:42;17.90;99.90
7530;DHT22;3806;52.270;10.544;2023-08-07T00:41:08;17.90;99.90
7530;DHT22;3806;52.270;10.544;2023-08-07T00:43:35;17.90;99.90
7530;DHT22;3806;52.270;10.544;2023-08-07T00:46:01;17.90;99.90
7530;DHT22;3806;52.270;10.544;2023-08-07T00:48:26;17.90;99.90
7530;DHT22;3806;52.270;10.544;2023-08-07T00:50:53;17.90;99.90
7530;DHT22;3806;52.270;10.544;2023-08-07T00:53:19;17.80;99.90
7530;DHT22;3806;52.270;10.544;2023-08-07T00:55:45;17.90;99.90
7530;DHT22;3806;52.270;10.544;2023-08-07T00:58:11;17.80;99.90
7530;DHT22;3806;52.270;10.544;2023-08-07T01:00:37;17.80;99.90
7530;DHT22;3806;52.270;10.544;2023-08-07T01:03:05;17.80;99.90
7530;DHT22;3806;52.270;10.544;2023-08-07T01:05:31;17.70;99.90
7530;DHT22;3806;52.270;10.544;2023-08-07T01:07:57;17.70;99.90
7530;DHT22;3806;52.270;10.544;2023-08-07T01:10:34;17.70;99.90
7530;DHT22;3806;52.270;10.544;2023-08-07T01:13:08;17.60;99.90
7530;DHT22;3806;52.270;10.544;2023-08-07T01:15:37;17.50;99.90
7530;DHT22;3806;52.270;10.544;2023-08-07T01:18:03;17.50;99.90
7530;DHT22;3806;52.270;10.544;2023-08-07T01:20:30;17.40;99.90
7530;DHT22;3806;52.270;10.544;2023-08-07T01:22:56;17.40;99.90
7530;DHT22;3806;52.270;10.544;2023-08-07T01:25:21;17.30;99.90
7530;DHT22;3806;52.270;10.544;2023-08-07T01:27:55;17.30;99.90
7530;DHT22;3806;52.270;10.544;2023-08-07T01:30:37;17.30;99.90
7530;DHT22;3806;52.270;10.544;2023-08-07T01:33:10;17.20;99.90
7530;DHT22;3806;52.270;10.544;2023-08-07T01:35:44;17.20;99.90
7530;DHT22;3806;52.270;10.544;2023-08-07T01:38:11;17.10;99.90
7530;DHT22;3806;52.270;10.544;2023-08-07T01:40:39;17.10;99.90
7530;DHT22;3806;52.270;10.544;2023-08-07T01:43:05;17.10;99.90
7530;DHT22;3806;52.270;10.544;2023-08-07T01:45:30;17.10;99.90
7530;DHT22;3806;52.270;10.544;2023-08-07T01:47:56;17.10;99.90
7530;DHT22;3806;52.270;10.544;2023-08-07T01:50:22;17.10;99.90
7530;DHT22;3806;52.270;10.544;2023-08-07T01:52:49;17.20;99.90
7530;DHT22;3806;52.270;10.544;2023-08-07T01:55:18;17.20;99.90
7530;DHT22;3806;52.270;10.544;2023-08-07T01:57:44;17.10;99.90
7530;DHT22;3806;52.270;10.544;2023-08-07T02:00:10;17.10;99.90
7530;DHT22;3806;52.270;10.544;2023-08-07T02:02:36;17.10;99.90
7530;DHT22;3806;52.270;10.544;2023-08-07T02:05:02;17.10;99.90
7530;DHT22;3806;52.270;10.544;2023-08-07T02:07:28;17.10;99.90
7530;DHT22;3806;52.270;10.544;2023-08-07T02:09:54;17.00;99.90
7530;DHT22;3806;52.270;10.544;2023-08-07T02:12:19;17.00;99.90
7530;DHT22;3806;52.270;10.544;2023-08-07T02:14:45;17.10;99.90
7530;DHT22;3806;52.270;10.544;2023-08-07T02:17:10;17.10;99.90
7530;DHT22;3806;52.270;10.544;2023-08-07T02:19:36;17.10;99.90
7530;DHT22;3806;52.270;10.544;2023-08-07T02:22:02;17.10;99.90
7530;DHT22;3806;52.270;10.544;2023-08-07T02:24:27;17.10;99.90
7530;DHT22;3806;52.270;10.544;2023-08-07T02:26:53;17.10;99.90
7530;DHT22;3806;52.270;10.544;2023-08-07T02:29:18;17.10;99.90
7530;DHT22;3806;52.270;10.544;2023-08-07T02:31:44;17.10;99.90
7530;DHT22;3806;52.270;10.544;2023-08-07T02:34:09;17.10;99.90
7530;DHT22;3806;52.270;10.544;2023-08-07T02:36:35;17.10;99.90
7530;DHT22;3806;52.270;10.544;2023-08-07T02:39:00;17.10;99.90
7530;DHT22;3806;52.270;10.544;2023-08-07T02:41:26;17.10;99.90
7530;DHT22;3806;52.270;10.544;2023-08-07T02:43:51;17.10;99.90
7530;DHT22;3806;52.270;10.544;2023-08-07T02:46:17;17.10;99.90
7530;DHT22;3806;52.270;10.544;2023-08-07T02:48:45;17.10;99.90
7530;DHT22;3806;52.270;10.544;2023-08-07T02:51:11;17.10;99.90
7530;DHT22;3806;52.270;10.544;2023-08-07T02:53:36;17.10;99.90
7530;DHT22;3806;52.270;10.544;2023-08-07T02:56:02;17.10;99.90
7530;DHT22;3806;52.270;10.544;2023-08-07T02:58:28;17.10;99.90
7530;DHT22;3806;52.270;10.544;2023-08-07T03:00:53;17.00;99.90
7530;DHT22;3806;52.270;10.544;2023-08-07T03:03:19;17.00;99.90
7530;DHT22;3806;52.270;10.544;2023-08-07T03:05:51;17.00;99.90
7530;DHT22;3806;52.270;10.544;2023-08-07T03:08:17;17.00;99.90
7530;DHT22;3806;52.270;10.544;2023-08-07T03:10:49;17.00;99.90
7530;DHT22;3806;52.270;10.544;2023-08-07T03:13:15;17.00;99.90
7530;DHT22;3806;52.270;10.544;2023-08-07T03:15:40;17.00;99.90
7530;DHT22;3806;52.270;10.544;2023-08-07T03:18:05;17.00;99.90
7530;DHT22;3806;52.270;10.544;2023-08-07T03:20:31;17.00;99.90
7530;DHT22;3806;52.270;10.544;2023-08-07T03:22:56;16.90;99.90
7530;DHT22;3806;52.270;10.544;2023-08-07T03:25:22;16.90;99.90
7530;DHT22;3806;52.270;10.544;2023-08-07T03:27:48;16.90;99.90
7530;DHT22;3806;52.270;10.544;2023-08-07T03:30:13;16.90;99.90
7530;DHT22;3806;52.270;10.544;2023-08-07T03:32:39;16.80;99.90
7530;DHT22;3806;52.270;10.544;2023-08-07T03:35:07;16.80;99.90
7530;DHT22;3806;52.270;10.544;2023-08-07T03:37:32;16.80;99.90
7530;DHT22;3806;52.270;10.544;2023-08-07T03:39:58;16.80;99.90
7530;DHT22;3806;52.270;10.544;2023-08-07T03:42:23;16.90;99.90
7530;DHT22;3806;52.270;10.544;2023-08-07T03:44:49;16.80;99.90
7530;DHT22;3806;52.270;10.544;2023-08-07T03:47:14;16.80;99.90
7530;DHT22;3806;52.270;10.544;2023-08-07T03:49:40;16.80;99.90
7530;DHT22;3806;52.270;10.544;2023-08-07T03:52:06;16.80;99.90
7530;DHT22;3806;52.270;10.544;2023-08-07T03:54:31;16.70;99.90
7530;DHT22;3806;52.270;10.544;2023-08-07T03:56:57;16.70;99.90
7530;DHT22;3806;52.270;10.544;2023-08-07T03:59:23;16.70;99.90
7530;DHT22;3806;52.270;10.544;2023-08-07T04:01:48;16.70;99.90
7530;DHT22;3806;52.270;10.544;2023-08-07T04:04:14;16.70;99.90
7530;DHT22;3806;52.270;10.544;2023-08-07T04:06:39;16.70;99.90
7530;DHT22;3806;52.270;10.544;2023-08-07T04:09:05;16.70;99.90
7530;DHT22;3806;52.270;10.544;2023-08-07T04:11:30;16.70;99.90
7530;DHT22;3806;52.270;10.544;2023-08-07T04:13:56;16.70;99.90
7530;DHT22;3806;52.270;10.544;2023-08-07T04:16:21;16.70;99.90
7530;DHT22;3806;52.270;10.544;2023-08-07T04:18:47;16.80;99.90
7530;DHT22;3806;52.270;10.544;2023-08-07T04:21:12;16.70;99.90
7530;DHT22;3806;52.270;10.544;2023-08-07T04:23:38;16.70;99.90
7530;DHT22;3806;52.270;10.544;2023-08-07T04:26:04;16.80;99.90
7530;DHT22;3806;52.270;10.544;2023-08-07T04:28:29;16.70;99.90
7530;DHT22;3806;52.270;10.544;2023-08-07T04:30:55;16.80;99.90
7530;DHT22;3806;52.270;10.544;2023-08-07T04:33:20;16.70;99.90
7530;DHT22;3806;52.270;10.544;2023-08-07T04:35:46;16.70;99.90
7530;DHT22;3806;52.270;10.544;2023-08-07T04:38:13;16.70;99.90
7530;DHT22;3806;52.270;10.544;2023-08-07T04:40:46;16.70;99.90
7530;DHT22;3806;52.270;10.544;2023-08-07T04:43:13;16.70;99.90
7530;DHT22;3806;52.270;10.544;2023-08-07T04:45:38;16.80;99.90
7530;DHT22;3806;52.270;10.544;2023-08-07T04:48:06;16.80;99.90
7530;DHT22;3806;52.270;10.544;2023-08-07T04:50:31;16.80;99.90
7530;DHT22;3806;52.270;10.544;2023-08-07T04:52:57;16.80;99.90
7530;DHT22;3806;52.270;10.544;2023-08-07T04:55:22;16.80;99.90
7530;DHT22;3806;52.270;10.544;2023-08-07T04:57:48;16.80;99.90
7530;DHT22;3806;52.270;10.544;2023-08-07T05:00:16;16.80;99.90
7530;DHT22;3806;52.270;10.544;2023-08-07T05:02:42;16.80;99.90
7530;DHT22;3806;52.270;10.544;2023-08-07T05:05:08;16.80;99.90
7530;DHT22;3806;52.270;10.544;2023-08-07T05:07:35;16.80;99.90
7530;DHT22;3806;52.270;10.544;2023-08-07T05:10:02;16.90;99.90
7530;DHT22;3806;52.270;10.544;2023-08-07T05:12:28;16.90;99.90
7530;DHT22;3806;52.270;10.544;2023-08-07T05:14:53;16.90;99.90
7530;DHT22;3806;52.270;10.544;2023-08-07T05:17:19;16.90;99.90
7530;DHT22;3806;52.270;10.544;2023-08-07T05:19:44;16.80;99.90
7530;DHT22;3806;52.270;10.544;2023-08-07T05:22:10;16.80;99.90
7530;DHT22;3806;52.270;10.544;2023-08-07T05:24:35;16.80;99.90
7530;DHT22;3806;52.270;10.544;2023-08-07T05:27:05;16.80;99.90
7530;DHT22;3806;52.270;10.544;2023-08-07T05:29:31;16.80;99.90
7530;DHT22;3806;52.270;10.544;2023-08-07T05:31:57;16.90;99.90
7530;DHT22;3806;52.270;10.544;2023-08-07T05:34:22;16.90;99.90
7530;DHT22;3806;52.270;10.544;2023-08-07T05:36:50;17.00;99.90
7530;DHT22;3806;52.270;10.544;2023-08-07T05:39:16;17.10;99.90
7530;DHT22;3806;52.270;10.544;2023-08-07T05:41:41;17.10;99.90
7530;DHT22;3806;52.270;10.544;2023-08-07T05:44:07;17.20;99.90
7530;DHT22;3806;52.270;10.544;2023-08-07T05:46:32;17.20;99.90
7530;DHT22;3806;52.270;10.544;2023-08-07T05:48:58;17.30;99.90
7530;DHT22;3806;52.270;10.544;2023-08-07T05:51:23;17.40;99.90
7530;DHT22;3806;52.270;10.544;2023-08-07T05:53:49;17.60;99.90
7530;DHT22;3806;52.270;10.544;2023-08-07T05:56:15;17.70;99.90
7530;DHT22;3806;52.270;10.544;2023-08-07T05:58:40;17.70;99.90
7530;DHT22;3806;52.270;10.544;2023-08-07T06:01:06;17.60;99.90
7530;DHT22;3806;52.270;10.544;2023-08-07T06:03:31;17.50;99.90
7530;DHT22;3806;52.270;10.544;2023-08-07T06:05:57;17.40;99.90
7530;DHT22;3806;52.270;10.544;2023-08-07T06:08:23;17.30;99.90
7530;DHT22;3806;52.270;10.544;2023-08-07T06:10:49;17.20;99.90
7530;DHT22;3806;52.270;10.544;2023-08-07T06:13:14;17.10;99.90
7530;DHT22;3806;52.270;10.544;2023-08-07T06:15:40;17.10;99.90
7530;DHT22;3806;52.270;10.544;2023-08-07T06:18:05;17.00;99.90
7530;DHT22;3806;52.270;10.544;2023-08-07T06:20:30;17.00;99.90
7530;DHT22;3806;52.270;10.544;2023-08-07T06:22:56;16.90;99.90
7530;DHT22;3806;52.270;10.544;2023-08-07T06:25:22;16.90;99.90
7530;DHT22;3806;52.270;10.544;2023-08-07T06:27:47;16.90;99.90
7530;DHT22;3806;52.270;10.544;2023-08-07T06:30:13;16.90;99.90
7530;DHT22;3806;52.270;10.544;2023-08-07T06:32:41;16.90;99.90
7530;DHT22;3806;52.270;10.544;2023-08-07T06:35:07;17.00;99.90
7530;DHT22;3806;52.270;10.544;2023-08-07T06:37:32;17.00;99.90
7530;DHT22;3806;52.270;10.544;2023-08-07T06:39:58;17.00;99.90
7530;DHT22;3806;52.270;10.544;2023-08-07T06:42:24;17.00;99.90
7530;DHT22;3806;52.270;10.544;2023-08-07T06:44:49;17.00;99.90
7530;DHT22;3806;52.270;10.544;2023-08-07T06:47:15;16.90;99.90
7530;DHT22;3806;52.270;10.544;2023-08-07T06:49:40;17.00;99.90
7530;DHT22;3806;52.270;10.544;2023-08-07T06:52:06;17.00;99.90
7530;DHT22;3806;52.270;10.544;2023-08-07T06:54:31;17.00;99.90
7530;DHT22;3806;52.270;10.544;2023-08-07T06:56:57;16.90;99.90
7530;DHT22;3806;52.270;10.544;2023-08-07T06:59:22;16.90;99.90
7530;DHT22;3806;52.270;10.544;2023-08-07T07:01:49;16.90;99.90
7530;DHT22;3806;52.270;10.544;2023-08-07T07:04:14;16.90;99.90
7530;DHT22;3806;52.270;10.544;2023-08-07T07:06:40;17.00;99.90
7530;DHT22;3806;52.270;10.544;2023-08-07T07:09:05;17.00;99.90
7530;DHT22;3806;52.270;10.544;2023-08-07T07:11:31;17.10;99.90
7530;DHT22;3806;52.270;10.544;2023-08-07T07:13:57;17.20;99.90
7530;DHT22;3806;52.270;10.544;2023-08-07T07:16:22;17.30;99.90
7530;DHT22;3806;52.270;10.544;2023-08-07T07:18:53;17.30;99.90
7530;DHT22;3806;52.270;10.544;2023-08-07T07:21:18;17.40;99.90
7530;DHT22;3806;52.270;10.544;2023-08-07T07:23:48;17.40;99.90
7530;DHT22;3806;52.270;10.544;2023-08-07T07:26:14;17.50;99.90
7530;DHT22;3806;52.270;10.544;2023-08-07T07:28:39;17.50;99.90
7530;DHT22;3806;52.270;10.544;2023-08-07T07:31:08;17.50;99.90
7530;DHT22;3806;52.270;10.544;2023-08-07T07:33:39;17.50;99.90
7530;DHT22;3806;52.270;10.544;2023-08-07T07:36:06;17.40;99.90
7530;DHT22;3806;52.270;10.544;2023-08-07T07:38:32;17.40;99.90
7530;DHT22;3806;52.270;10.544;2023-08-07T07:40:57;17.40;99.90
7530;DHT22;3806;52.270;10.544;2023-08-07T07:43:23;17.40;99.90
7530;DHT22;3806;52.270;10.544;2023-08-07T07:45:49;17.50;99.90
7530;DHT22;3806;52.270;10.544;2023-08-07T07:48:14;17.60;99.90
7530;DHT22;3806;52.270;10.544;2023-08-07T07:50:43;17.80;99.90
7530;DHT22;3806;52.270;10.544;2023-08-07T07:53:09;18.00;99.90
7530;DHT22;3806;52.270;10.544;2023-08-07T07:55:34;18.20;99.90
7530;DHT22;3806;52.270;10.544;2023-08-07T07:58:00;18.40;99.90
7530;DHT22;3806;52.270;10.544;2023-08-07T08:00:26;18.50;99.90
7530;DHT22;3806;52.270;10.544;2023-08-07T08:02:52;18.70;99.90
7530;DHT22;3806;52.270;10.544;2023-08-07T08:05:19;18.80;99.90
7530;DHT22;3806;52.270;10.544;2023-08-07T08:07:44;18.90;99.90
7530;DHT22;3806;52.270;10.544;2023-08-07T08:10:10;19.10;99.90
7530;DHT22;3806;52.270;10.544;2023-08-07T08:12:36;19.30;99.90
7530;DHT22;3806;52.270;10.544;2023-08-07T08:15:03;19.50;99.90
7530;DHT22;3806;52.270;10.544;2023-08-07T08:17:28;19.70;99.90
7530;DHT22;3806;52.270;10.544;2023-08-07T08:19:54;19.90;99.90
7530;DHT22;3806;52.270;10.544;2023-08-07T08:22:20;20.10;99.90
7530;DHT22;3806;52.270;10.544;2023-08-07T08:24:45;20.20;99.90
7530;DHT22;3806;52.270;10.544;2023-08-07T08:27:13;20.10;99.90
7530;DHT22;3806;52.270;10.544;2023-08-07T08:29:38;20.10;99.90
7530;DHT22;3806;52.270;10.544;2023-08-07T08:32:04;20.00;99.90
7530;DHT22;3806;52.270;10.544;2023-08-07T08:34:29;19.90;99.90
7530;DHT22;3806;52.270;10.544;2023-08-07T08:36:55;19.90;99.90
7530;DHT22;3806;52.270;10.544;2023-08-07T08:39:20;20.20;99.90
7530;DHT22;3806;52.270;10.544;2023-08-07T08:41:47;20.60;99.90
7530;DHT22;3806;52.270;10.544;2023-08-07T08:44:17;20.80;99.90
7530;DHT22;3806;52.270;10.544;2023-08-07T08:46:46;20.80;99.90
7530;DHT22;3806;52.270;10.544;2023-08-07T08:49:16;20.80;99.90
7530;DHT22;3806;52.270;10.544;2023-08-07T08:51:44;20.60;99.90
7530;DHT22;3806;52.270;10.544;2023-08-07T08:54:10;20.50;99.90
7530;DHT22;3806;52.270;10.544;2023-08-07T08:56:36;20.60;99.90
7530;DHT22;3806;52.270;10.544;2023-08-07T08:59:02;20.90;99.90
7530;DHT22;3806;52.270;10.544;2023-08-07T09:01:30;21.10;99.90
7530;DHT22;3806;52.270;10.544;2023-08-07T09:03:57;21.30;99.90
7530;DHT22;3806;52.270;10.544;2023-08-07T09:06:23;21.40;99.90
7530;DHT22;3806;52.270;10.544;2023-08-07T09:08:50;21.50;99.90
7530;DHT22;3806;52.270;10.544;2023-08-07T09:11:16;21.70;99.90
7530;DHT22;3806;52.270;10.544;2023-08-07T09:13:43;21.80;99.90
7530;DHT22;3806;52.270;10.544;2023-08-07T09:16:11;21.70;99.90
7530;DHT22;3806;52.270;10.544;2023-08-07T09:18:40;21.60;99.90
7530;DHT22;3806;52.270;10.544;2023-08-07T09:21:06;21.30;99.90
7530;DHT22;3806;52.270;10.544;2023-08-07T09:23:31;21.10;99.90
7530;DHT22;3806;52.270;10.544;2023-08-07T09:26:01;20.90;99.90
7530;DHT22;3806;52.270;10.544;2023-08-07T09:28:28;21.00;99.90
7530;DHT22;3806;52.270;10.544;2023-08-07T09:30:57;21.30;99.90
7530;DHT22;3806;52.270;10.544;2023-08-07T09:33:26;21.60;99.90
7530;DHT22;3806;52.270;10.544;2023-08-07T09:35:52;21.70;99.90
7530;DHT22;3806;52.270;10.544;2023-08-07T09:38:18;21.50;99.90
7530;DHT22;3806;52.270;10.544;2023-08-07T09:40:44;21.20;99.90
7530;DHT22;3806;52.270;10.544;2023-08-07T09:43:10;20.90;99.90
7530;DHT22;3806;52.270;10.544;2023-08-07T09:45:45;20.50;99.90
7530;DHT22;3806;52.270;10.544;2023-08-07T09:48:11;20.30;99.90
7530;DHT22;3806;52.270;10.544;2023-08-07T09:50:37;20.10;99.90
7530;DHT22;3806;52.270;10.544;2023-08-07T09:53:05;19.80;99.90
7530;DHT22;3806;52.270;10.544;2023-08-07T09:55:31;19.60;99.90
7530;DHT22;3806;52.270;10.544;2023-08-07T09:57:57;19.50;99.90
7530;DHT22;3806;52.270;10.544;2023-08-07T10:00:22;19.50;99.90
7530;DHT22;3806;52.270;10.544;2023-08-07T10:02:49;19.50;99.90
7530;DHT22;3806;52.270;10.544;2023-08-07T10:05:18;19.50;99.90
7530;DHT22;3806;52.270;10.544;2023-08-07T10:07:44;19.50;99.90
7530;DHT22;3806;52.270;10.544;2023-08-07T10:10:10;19.50;99.90
7530;DHT22;3806;52.270;10.544;2023-08-07T10:12:37;19.60;99.90
7530;DHT22;3806;52.270;10.544;2023-08-07T10:15:03;19.80;99.90
7530;DHT22;3806;52.270;10.544;2023-08-07T10:17:29;20.00;99.90
7530;DHT22;3806;52.270;10.544;2023-08-07T10:19:56;20.20;99.90
7530;DHT22;3806;52.270;10.544;2023-08-07T10:22:27;20.40;99.90
7530;DHT22;3806;52.270;10.544;2023-08-07T10:24:54;20.80;99.90
7530;DHT22;3806;52.270;10.544;2023-08-07T10:27:23;21.20;99.90
7530;DHT22;3806;52.270;10.544;2023-08-07T10:29:51;21.60;99.90
7530;DHT22;3806;52.270;10.544;2023-08-07T10:32:20;22.10;99.90
7530;DHT22;3806;52.270;10.544;2023-08-07T10:34:52;22.50;99.90
7530;DHT22;3806;52.270;10.544;2023-08-07T10:40:08;23.20;99.90
7530;DHT22;3806;52.270;10.544;2023-08-07T10:43:12;23.30;99.20
7530;DHT22;3806;52.270;10.544;2023-08-07T10:45:37;23.50;99.00
7530;DHT22;3806;52.270;10.544;2023-08-07T10:53:35;23.80;98.10
7530;DHT22;3806;52.270;10.544;2023-08-07T10:56:03;23.80;97.70
7530;DHT22;3806;52.270;10.544;2023-08-07T10:58:33;23.50;97.60
7530;DHT22;3806;52.270;10.544;2023-08-07T11:03:55;22.70;98.60
7530;DHT22;3806;52.270;10.544;2023-08-07T11:08:56;22.00;99.60
7530;DHT22;3806;52.270;10.544;2023-08-07T11:11:22;22.00;99.90
7530;DHT22;3806;52.270;10.544;2023-08-07T11:13:47;22.10;99.90
7530;DHT22;3806;52.270;10.544;2023-08-07T11:16:13;22.20;99.90
7530;DHT22;3806;52.270;10.544;2023-08-07T11:18:39;22.00;99.90
7530;DHT22;3806;52.270;10.544;2023-08-07T11:21:09;21.80;99.90
7530;DHT22;3806;52.270;10.544;2023-08-07T11:23:41;21.50;99.90
7530;DHT22;3806;52.270;10.544;2023-08-07T11:26:09;21.20;99.90
7530;DHT22;3806;52.270;10.544;2023-08-07T11:28:37;21.10;99.90
7530;DHT22;3806;52.270;10.544;2023-08-07T11:31:03;21.00;99.90
7530;DHT22;3806;52.270;10.544;2023-08-07T11:33:29;21.10;99.90
7530;DHT22;3806;52.270;10.544;2023-08-07T11:35:54;21.40;99.90
7530;DHT22;3806;52.270;10.544;2023-08-07T11:40:59;21.90;99.40
7530;DHT22;3806;52.270;10.544;2023-08-07T11:43:27;21.90;99.00
7530;DHT22;3806;52.270;10.544;2023-08-07T11:45:53;21.90;99.30
7530;DHT22;3806;52.270;10.544;2023-08-07T11:48:19;21.90;99.30
7530;DHT22;3806;52.270;10.544;2023-08-07T11:50:45;21.80;99.20
7530;DHT22;3806;52.270;10.544;2023-08-07T11:53:10;21.80;99.10
7530;DHT22;3806;52.270;10.544;2023-08-07T11:55:36;21.70;99.10
7530;DHT22;3806;52.270;10.544;2023-08-07T11:58:05;21.60;99.00
7530;DHT22;3806;52.270;10.544;2023-08-07T12:00:32;21.50;99.00
7530;DHT22;3806;52.270;10.544;2023-08-07T12:02:57;21.50;99.10
7530;DHT22;3806;52.270;10.544;2023-08-07T12:05:23;21.40;99.30
7530;DHT22;3806;52.270;10.544;2023-08-07T12:07:49;21.20;99.00
7530;DHT22;3806;52.270;10.544;2023-08-07T12:10:15;21.10;99.40
7530;DHT22;3806;52.270;10.544;2023-08-07T12:12:45;21.00;99.70
7530;DHT22;3806;52.270;10.544;2023-08-07T12:15:10;21.10;99.70
7530;DHT22;3806;52.270;10.544;2023-08-07T12:17:36;21.30;99.40
7530;DHT22;3806;52.270;10.544;2023-08-07T12:20:08;21.70;99.10
7530;DHT22;3806;52.270;10.544;2023-08-07T12:22:36;22.00;98.40
7530;DHT22;3806;52.270;10.544;2023-08-07T12:25:02;22.20;97.90
7530;DHT22;3806;52.270;10.544;2023-08-07T12:27:28;22.20;96.40
7530;DHT22;3806;52.270;10.544;2023-08-07T12:29:53;22.10;96.90
7530;DHT22;3806;52.270;10.544;2023-08-07T12:32:19;22.10;96.40
7530;DHT22;3806;52.270;10.544;2023-08-07T12:34:44;22.20;95.80
7530;DHT22;3806;52.270;10.544;2023-08-07T12:37:10;22.40;96.30
7530;DHT22;3806;52.270;10.544;2023-08-07T12:39:35;22.50;95.90
7530;DHT22;3806;52.270;10.544;2023-08-07T12:42:01;22.30;96.50
7530;DHT22;3806;52.270;10.544;2023-08-07T12:44:28;22.20;96.30
7530;DHT22;3806;52.270;10.544;2023-08-07T12:46:54;22.20;95.80
7530;DHT22;3806;52.270;10.544;2023-08-07T12:49:19;22.20;95.40
7530;DHT22;3806;52.270;10.544;2023-08-07T12:51:45;22.10;94.80
7530;DHT22;3806;52.270;10.544;2023-08-07T12:54:13;22.20;94.10
7530;DHT22;3806;52.270;10.544;2023-08-07T12:56:39;22.30;94.50
7530;DHT22;3806;52.270;10.544;2023-08-07T12:59:04;22.40;93.70
7530;DHT22;3806;52.270;10.544;2023-08-07T13:01:30;22.30;93.80
7530;DHT22;3806;52.270;10.544;2023-08-07T13:03:55;22.10;94.10
7530;DHT22;3806;52.270;10.544;2023-08-07T13:06:21;22.00;94.10
7530;DHT22;3806;52.270;10.544;2023-08-07T13:08:46;22.00;93.70
7530;DHT22;3806;52.270;10.544;2023-08-07T13:11:12;22.10;93.50
7530;DHT22;3806;52.270;10.544;2023-08-07T13:13:38;22.20;92.90
7530;DHT22;3806;52.270;10.544;2023-08-07T13:16:04;22.30;93.00
7530;DHT22;3806;52.270;10.544;2023-08-07T13:18:32;22.20;92.30
7530;DHT22;3806;52.270;10.544;2023-08-07T13:20:58;22.20;92.30
7530;DHT22;3806;52.270;10.544;2023-08-07T13:23:24;22.10;92.20
7530;DHT22;3806;52.270;10.544;2023-08-07T13:25:50;22.10;91.60
7530;DHT22;3806;52.270;10.544;2023-08-07T13:28:15;22.00;91.10
7530;DHT22;3806;52.270;10.544;2023-08-07T13:30:46;21.90;91.20
7530;DHT22;3806;52.270;10.544;2023-08-07T13:33:12;21.90;92.00
7530;DHT22;3806;52.270;10.544;2023-08-07T13:35:38;22.00;90.70
7530;DHT22;3806;52.270;10.544;2023-08-07T13:38:03;22.00;91.50
7530;DHT22;3806;52.270;10.544;2023-08-07T13:40:34;22.10;88.60
7530;DHT22;3806;52.270;10.544;2023-08-07T13:42:59;22.10;90.00
7530;DHT22;3806;52.270;10.544;2023-08-07T13:45:28;22.10;90.30
7530;DHT22;3806;52.270;10.544;2023-08-07T13:47:53;22.20;86.40
7530;DHT22;3806;52.270;10.544;2023-08-07T13:50:19;22.10;85.60
7530;DHT22;3806;52.270;10.544;2023-08-07T13:52:45;22.10;85.90
7530;DHT22;3806;52.270;10.544;2023-08-07T13:55:11;22.10;87.90
7530;DHT22;3806;52.270;10.544;2023-08-07T13:57:36;22.00;87.80
7530;DHT22;3806;52.270;10.544;2023-08-07T14:00:05;21.90;87.10
7530;DHT22;3806;52.270;10.544;2023-08-07T14:02:30;21.70;88.50
7530;DHT22;3806;52.270;10.544;2023-08-07T14:04:58;21.50;90.10
7530;DHT22;3806;52.270;10.544;2023-08-07T14:07:24;21.30;90.30
7530;DHT22;3806;52.270;10.544;2023-08-07T14:09:49;21.20;90.10
7530;DHT22;3806;52.270;10.544;2023-08-07T14:12:15;21.10;91.00
7530;DHT22;3806;52.270;10.544;2023-08-07T14:14:43;20.80;91.40
7530;DHT22;3806;52.270;10.544;2023-08-07T14:17:09;20.80;91.70
7530;DHT22;3806;52.270;10.544;2023-08-07T14:19:34;20.70;92.10
7530;DHT22;3806;52.270;10.544;2023-08-07T14:22:00;20.50;92.30
7530;DHT22;3806;52.270;10.544;2023-08-07T14:24:26;20.40;92.90
7530;DHT22;3806;52.270;10.544;2023-08-07T14:26:52;20.50;93.00
7530;DHT22;3806;52.270;10.544;2023-08-07T14:29:17;20.60;93.20
7530;DHT22;3806;52.270;10.544;2023-08-07T14:31:43;20.80;92.80
7530;DHT22;3806;52.270;10.544;2023-08-07T14:34:08;20.90;92.60
7530;DHT22;3806;52.270;10.544;2023-08-07T14:36:35;21.10;92.50
7530;DHT22;3806;52.270;10.544;2023-08-07T14:39:03;21.20;92.00
7530;DHT22;3806;52.270;10.544;2023-08-07T14:41:28;21.30;92.00
7530;DHT22;3806;52.270;10.544;2023-08-07T14:43:54;21.40;91.80
7530;DHT22;3806;52.270;10.544;2023-08-07T14:46:20;21.40;91.30
7530;DHT22;3806;52.270;10.544;2023-08-07T14:48:49;21.40;91.10
7530;DHT22;3806;52.270;10.544;2023-08-07T14:51:14;21.40;89.90
7530;DHT22;3806;52.270;10.544;2023-08-07T14:53:40;21.40;89.00
7530;DHT22;3806;52.270;10.544;2023-08-07T14:56:14;21.20;88.10
7530;DHT22;3806;52.270;10.544;2023-08-07T14:58:40;21.10;87.10
7530;DHT22;3806;52.270;10.544;2023-08-07T15:01:06;21.00;85.50
7530;DHT22;3806;52.270;10.544;2023-08-07T15:03:31;20.90;86.60
7530;DHT22;3806;52.270;10.544;2023-08-07T15:05:57;20.80;84.30
7530;DHT22;3806;52.270;10.544;2023-08-07T15:08:23;20.70;86.70
7530;DHT22;3806;52.270;10.544;2023-08-07T15:10:51;20.70;87.20
7530;DHT22;3806;52.270;10.544;2023-08-07T15:13:17;20.70;88.00
7530;DHT22;3806;52.270;10.544;2023-08-07T15:15:42;20.80;87.70
7530;DHT22;3806;52.270;10.544;2023-08-07T15:18:09;20.90;86.30
7530;DHT22;3806;52.270;10.544;2023-08-07T15:20:35;20.90;87.10
7530;DHT22;3806;52.270;10.544;2023-08-07T15:23:01;20.90;85.30
7530;DHT22;3806;52.270;10.544;2023-08-07T15:25:27;20.90;84.80
7530;DHT22;3806;52.270;10.544;2023-08-07T15:27:52;20.80;83.80
7530;DHT22;3806;52.270;10.544;2023-08-07T15:30:20;20.80;85.00
7530;DHT22;3806;52.270;10.544;2023-08-07T15:32:45;20.90;83.30
7530;DHT22;3806;52.270;10.544;2023-08-07T15:35:11;20.80;84.20
7530;DHT22;3806;52.270;10.544;2023-08-07T15:37:37;20.80;85.10
7530;DHT22;3806;52.270;10.544;2023-08-07T15:40:03;20.80;84.30
7530;DHT22;3806;52.270;10.544;2023-08-07T15:42:28;20.80;82.70
7530;DHT22;3806;52.270;10.544;2023-08-07T15:44:54;20.80;80.60
7530;DHT22;3806;52.270;10.544;2023-08-07T15:47:19;20.80;80.90
7530;DHT22;3806;52.270;10.544;2023-08-07T15:49:45;20.80;82.80
7530;DHT22;3806;52.270;10.544;2023-08-07T15:52:14;20.80;79.40
7530;DHT22;3806;52.270;10.544;2023-08-07T15:54:40;20.80;78.10
7530;DHT22;3806;52.270;10.544;2023-08-07T15:57:09;20.70;80.30